Terminal Aerodrome Forecast
Issued by NWS

Home | Current Version | Previous Version | Text Only | Print | Product List | Glossary On
Versions: 1 2 3 4 5 6 7 8 9 10 11 12 13 14 15 16 17 18
797
FTPA31 PHFO 012320
TAFHOG
TAF
PHOG 012320Z 0200/0224 05020G30KT P6SM FEW035 SCT050
     FM020500 05012G20KT P6SM FEW035 SCT050
     FM022000 04020G30KT P6SM SCT035 SCT050
      AMD LTD TO VIS AND WIND 0209/0216=

USA.gov is the U.S. government's official web portal to all federal, state and local government web resources and services.